Time;durP1;ratioP1;P1;durP2;ratioP2;P2;SDS_P1;SDS_P2;PMS_P1;PMS_P2;Temp;Humidity;BMP_temperature;BMP_pressure;BME280_temperature;BME280_humidity;BME280_pressure;Samples;Min_cycle;Max_cycle;Signal;HPM_P1;HPM_P2
2022/03/16 00:33:29;;;;;;;23.10;16.52;;;;;;;14.36;36.95;100802.95;1771045;110;25950;-83
2022/03/16 00:37:29;;;;;;;25.30;16.52;;;;;;;14.32;36.99;100804.66;1750520;110;26326;-83
2022/03/16 00:41:37;;;;;;;25.25;17.05;;;;;;;14.30;37.00;100792.37;1713247;115;25930;-82
2022/03/16 00:46:02;;;;;;;;;;;;;;;;;;;;;
2022/03/16 00:49:51;;;;;;;20.80;16.70;;;;;;;14.26;37.07;100801.93;1727240;108;25766;-82
2022/03/16 00:58:03;;;;;;;;;;;;;;;14.20;37.15;100795.27;1758593;108;25949;-82
2022/03/16 01:01:50;;;;;;;27.07;18.37;;;;;;;14.17;37.18;100786.95;1774539;111;25842;-82
2022/03/16 01:05:55;;;;;;;;;;;;;;;;;;;;;
2022/03/16 01:09:52;;;;;;;27.20;20.02;;;;;;;14.10;37.23;100783.77;1809703;107;25906;-87
2022/03/16 01:17:51;;;;;;;31.33;20.52;;;;;;;14.06;37.30;100779.33;1727897;114;25886;-86
2022/03/16 01:21:43;;;;;;;31.35;20.25;;;;;;;14.04;37.33;100783.69;1718007;113;26128;-82
2022/03/16 01:25:56;;;;;;;30.82;21.70;;;;;;;14.01;37.35;100786.69;1745436;111;26060;-85
2022/03/16 01:40:20;;;;;;;33.30;21.40;;;;;;;13.92;37.43;100776.49;1750289;110;25861;-82
2022/03/16 01:44:05;;;;;;;33.85;21.73;;;;;;;13.86;37.43;100793.42;1702153;115;25758;-83
2022/03/16 01:51:54;;;;;;;39.83;22.35;;;;;;;13.83;37.49;100785.94;1800200;108;25837;-83
2022/03/16 01:55:44;;;;;;;;;;;;;;;;;;;;;
2022/03/16 01:59:12;;;;;;;38.50;22.77;;;;;;;13.79;37.54;100787.62;1777252;107;25878;-83
2022/03/16 02:26:18;;;;;;;;;;;;;;;;;;;;;
2022/03/16 02:35:31;;;;;;;42.25;26.35;;;;;;;13.60;37.66;100780.30;1800441;108;26625;-84
2022/03/16 02:48:24;;;;;;;34.05;22.20;;;;;;;13.55;37.75;100776.73;1855889;104;26028;-82
2022/03/16 02:52:08;;;;;;;36.58;22.55;;;;;;;13.53;37.80;100778.00;1850925;106;25855;-84
2022/03/16 02:55:50;;;;;;;34.13;21.65;;;;;;;13.52;37.82;100768.81;1810233;107;26081;-83
2022/03/16 03:00:02;;;;;;;36.38;21.77;;;;;;;13.51;37.84;100770.56;1784666;107;25959;-82
2022/03/16 03:24:44;;;;;;;38.38;23.35;;;;;;;13.41;37.95;100760.77;1793362;108;25862;-84
2022/03/16 03:32:47;;;;;;;40.78;23.55;;;;;;;13.37;37.98;100766.38;1827933;106;25661;-85
2022/03/16 03:58:55;;;;;;;;;;;;;;;;;;;;;
2022/03/16 04:02:44;;;;;;;35.68;23.90;;;;;;;13.20;38.11;100786.98;1760910;109;25850;-84
2022/03/16 04:11:06;;;;;;;;;;;;;;;;;;;;;
2022/03/16 04:15:40;;;;;;;;;;;;;;;;;;;;;
2022/03/16 04:48:17;;;;;;;;;;;;;;;;;;;;;
2022/03/16 04:52:45;;;;;;;;;;;;;;;;;;;;;
2022/03/16 04:56:41;;;;;;;35.70;23.73;;;;;;;12.85;38.54;100777.53;1676785;117;25973;-86
2022/03/16 05:00:25;;;;;;;34.25;23.05;;;;;;;12.84;38.59;100784.93;1653310;114;25981;-83
2022/03/16 05:03:52;;;;;;;36.53;22.75;;;;;;;12.81;38.64;100787.05;1624714;120;25906;-83
2022/03/16 05:08:12;;;;;;;34.60;22.07;;;;;;;12.81;38.67;100797.52;1620188;120;25908;-83
2022/03/16 05:11:48;;;;;;;31.62;21.87;;;;;;;12.80;38.71;100801.42;1630915;119;25922;-85
2022/03/16 05:15:50;;;;;;;;;;;;;;;;;;;;;
2022/03/16 05:19:59;;;;;;;34.48;23.20;;;;;;;12.79;38.77;100807.48;1585606;123;26057;-84
2022/03/16 05:33:00;;;;;;;;;;;;;;;;;;;;;
2022/03/16 05:54:36;;;;;;;39.38;23.62;;;;;;;12.75;39.00;100820.92;1721780;114;25815;-84
2022/03/16 05:58:15;;;;;;;36.25;22.45;;;;;;;12.77;38.96;100824.47;1730770;112;26014;-84
2022/03/16 06:01:52;;;;;;;;;;;;;;;;;;;;;
2022/03/16 06:06:00;;;;;;;36.70;23.55;;;;;;;12.81;38.98;100832.84;1731228;112;26084;-84
2022/03/16 06:09:47;;;;;;;;;;;;;;;;;;;;;
2022/03/16 06:13:12;;;;;;;34.70;22.37;;;;;;;12.89;38.95;100843.06;1720572;113;25890;-87
2022/03/16 06:17:05;;;;;;;32.65;23.20;;;;;;;12.94;38.95;100849.69;1717150;113;25971;-83
2022/03/16 06:32:58;;;;;;;31.37;23.05;;;;;;;13.13;38.87;100865.38;1672827;116;25945;-84
2022/03/16 07:05:42;;;;;;;42.70;25.37;;;;;;;13.61;38.80;100899.98;2371205;79;25582;-85
2022/03/16 07:09:03;;;;;;;31.12;21.95;;;;;;;13.68;38.77;100894.87;2300072;86;25708;-83
2022/03/16 07:12:29;;;;;;;31.70;21.97;;;;;;;13.76;38.76;100893.70;2318918;84;25545;-83
2022/03/16 07:15:50;;;;;;;36.40;23.22;;;;;;;13.84;38.69;100891.25;2318962;85;25690;-84
2022/03/16 07:19:11;;;;;;;38.38;23.52;;;;;;;13.92;38.54;100891.83;2319858;85;25641;-83
2022/03/16 07:22:33;;;;;;;32.28;22.80;;;;;;;14.02;38.49;100894.63;2319505;85;30906;-84
2022/03/16 07:25:54;;;;;;;32.88;22.77;;;;;;;14.12;38.36;100895.23;2319704;84;25237;-83
2022/03/16 07:29:15;;;;;;;35.63;24.47;;;;;;;14.26;38.18;100902.91;2319957;85;25681;-82
2022/03/16 07:32:39;;;;;;;39.10;24.50;;;;;;;14.40;38.00;100900.07;2319795;85;25725;-84
2022/03/16 07:35:59;;;;;;;33.67;24.15;;;;;;;14.58;37.79;100900.85;2319245;85;25626;-85
2022/03/16 07:39:20;;;;;;;32.88;23.62;;;;;;;14.82;37.56;100900.33;2319472;85;30972;-83
2022/03/16 07:42:47;;;;;;;34.57;23.23;;;;;;;15.11;37.27;100902.47;2299672;85;25681;-84
2022/03/16 07:46:08;;;;;;;31.37;24.65;;;;;;;15.38;37.01;100908.50;2319627;85;25685;-83
2022/03/16 07:49:34;;;;;;;38.53;24.00;;;;;;;15.67;36.69;100911.96;2318983;85;25784;-82
2022/03/16 07:52:58;;;;;;;36.90;24.32;;;;;;;15.81;36.44;100891.95;2318517;85;25720;-85
2022/03/16 07:56:19;;;;;;;31.15;23.90;;;;;;;16.13;35.95;100913.33;2318866;85;25638;-83
2022/03/16 07:59:40;;;;;;;35.68;25.20;;;;;;;16.33;35.95;100916.10;2318564;85;30874;-86
2022/03/16 08:03:01;;;;;;;31.97;23.32;;;;;;;16.53;35.77;100920.22;2318823;85;25693;-86
2022/03/16 08:06:25;;;;;;;31.45;24.12;;;;;;;16.71;35.58;100919.05;2316973;84;25786;-85
2022/03/16 08:09:46;;;;;;;37.00;24.52;;;;;;;16.89;35.36;100930.17;2316074;85;31287;-85
2022/03/16 08:13:07;;;;;;;32.50;22.73;;;;;;;17.08;35.23;100923.72;2316171;85;25704;-85
2022/03/16 08:16:27;;;;;;;32.60;23.95;;;;;;;17.29;35.04;100933.48;2316184;85;25714;-85
2022/03/16 08:19:49;;;;;;;33.78;23.57;;;;;;;17.50;34.93;100937.52;2316257;85;26432;-87
2022/03/16 08:23:10;;;;;;;33.23;23.90;;;;;;;17.67;34.78;100933.19;2316360;85;31373;-85
2022/03/16 08:26:31;;;;;;;30.70;23.67;;;;;;;17.83;34.60;100946.47;2316460;85;25707;-87
2022/03/16 08:29:53;;;;;;;33.40;23.77;;;;;;;18.01;34.41;100935.08;2316477;85;30866;-85
2022/03/16 08:33:15;;;;;;;20.82;14.95;;;;;;;18.17;34.20;100937.73;2316764;85;25239;-84
2022/03/16 08:36:37;;;;;;;27.35;16.37;;;;;;;18.43;36.74;100940.86;2316473;85;26020;-83
2022/03/16 08:39:58;;;;;;;23.38;14.35;;;;;;;18.78;37.33;100946.14;2317479;85;25166;-83
2022/03/16 08:43:19;;;;;;;19.40;15.18;;;;;;;19.10;37.99;100950.06;2317476;85;31419;-84
2022/03/16 08:46:39;;;;;;;21.02;16.05;;;;;;;19.44;38.44;100954.34;2317582;85;30833;-81
2022/03/16 08:50:00;;;;;;;23.85;17.15;;;;;;;19.74;38.63;100952.05;2317497;85;25697;-87
2022/03/16 08:53:21;;;;;;;24.70;16.95;;;;;;;19.97;38.70;100962.06;2317122;85;25617;-90
2022/03/16 08:56:42;;;;;;;29.75;20.05;;;;;;;20.09;38.72;100965.55;2317458;85;25657;-82
2022/03/16 09:00:04;;;;;;;28.57;20.17;;;;;;;20.17;38.62;100964.59;2317512;85;30820;-83
2022/03/16 09:03:25;;;;;;;31.25;22.48;;;;;;;20.20;38.49;100972.97;2317288;85;25848;-75
2022/03/16 09:06:45;;;;;;;54.05;31.15;;;;;;;20.20;38.28;100970.32;2260876;85;31080;-80
2022/03/16 09:10:08;;;;;;;45.70;34.80;;;;;;;20.14;37.20;100967.25;2207965;89;25277;-84
2022/03/16 09:13:29;;;;;;;51.15;35.70;;;;;;;19.68;34.38;100975.46;2237323;87;25832;-83
2022/03/16 09:16:51;;;;;;;58.65;37.30;;;;;;;19.23;33.14;100969.84;2220015;88;25696;-80
2022/03/16 09:20:13;;;;;;;57.40;37.08;;;;;;;18.91;32.51;100976.52;2220055;88;25577;-85
2022/03/16 09:23:33;;;;;;;50.30;34.85;;;;;;;18.75;32.44;100986.20;2220196;89;25596;-76
2022/03/16 09:26:59;;;;;;;55.38;33.83;;;;;;;18.86;33.03;100995.00;2222023;89;25685;-76
2022/03/16 09:30:18;;;;;;;52.98;34.63;;;;;;;19.03;32.79;100994.98;2221874;88;26428;-77
2022/03/16 09:33:40;;;;;;;47.75;31.50;;;;;;;19.41;32.55;100995.38;2222108;88;25643;-78
2022/03/16 09:37:05;;;;;;;55.08;34.25;;;;;;;19.94;33.01;100999.58;2221691;89;26332;-78
2022/03/16 09:40:26;;;;;;;42.15;31.70;;;;;;;20.59;32.00;100998.33;2222091;89;26362;-79
2022/03/16 09:43:50;;;;;;;46.15;32.20;;;;;;;21.43;31.80;101009.50;2222036;88;25668;-78
2022/03/16 09:47:23;;;;;;;44.73;30.77;;;;;;;22.42;31.11;101016.20;2222034;89;25621;-78
2022/03/16 09:50:54;;;;;;;47.20;33.63;;;;;;;23.47;30.24;101008.20;2221101;88;25900;-77
2022/03/16 09:58:31;;;;;;;41.58;31.02;;;;;;;25.53;26.77;101033.61;2071012;92;25849;-79
2022/03/16 10:07:05;;;;;;;;;;;;;;;;;;;;;
2022/03/16 10:15:55;;;;;;;37.08;26.35;;;;;;;28.44;22.90;101037.20;1954466;99;25377;-83
2022/03/16 10:20:01;;;;;;;;;;;;;;;;;;;;;
2022/03/16 10:23:37;;;;;;;32.30;24.80;;;;;;;29.53;21.62;101050.05;1888985;100;25774;-79
2022/03/16 10:27:02;;;;;;;40.65;25.20;;;;;;;29.85;20.57;101059.39;1891074;104;26017;-80
2022/03/16 10:30:29;;;;;;;29.05;22.87;;;;;;;29.53;20.17;101056.33;1891426;103;26159;-80
2022/03/16 10:33:58;;;;;;;28.35;24.75;;;;;;;29.58;20.15;101059.66;1891187;100;25819;-80
2022/03/16 10:37:26;;;;;;;37.40;24.18;;;;;;;29.68;19.83;101064.19;1855475;104;26666;-80
2022/03/16 10:40:56;;;;;;;36.07;24.63;;;;;;;29.73;19.49;101071.55;1864546;104;26012;-80
2022/03/16 10:48:23;;;;;;;29.92;21.77;;;;;;;29.63;19.55;101074.26;1865195;105;26281;-80
2022/03/16 10:52:18;;;;;;;34.35;23.40;;;;;;;29.69;19.97;101085.21;1870066;101;25430;-79
2022/03/16 10:55:52;;;;;;;30.43;22.42;;;;;;;29.82;20.79;101081.90;1912195;103;25978;-80
2022/03/16 10:59:26;;;;;;;27.90;22.17;;;;;;;29.63;20.34;101083.22;1924312;101;26413;-79
2022/03/16 11:03:37;;;;;;;31.33;22.13;;;;;;;29.55;20.24;101089.83;1951152;98;26056;-79
2022/03/16 11:10:58;;;;;;;27.02;20.10;;;;;;;29.37;20.28;101084.80;1900744;100;25892;-81
2022/03/16 11:14:27;;;;;;;23.73;19.85;;;;;;;29.57;20.18;101079.42;2000319;98;26136;-81
2022/03/16 11:17:54;;;;;;;26.52;19.70;;;;;;;29.64;19.41;101086.30;2032405;96;26037;-81
2022/03/16 11:22:14;;;;;;;;;;;;;;;;;;;;;
2022/03/16 11:26:23;;;;;;;25.43;18.15;;;;;;;29.07;19.29;101082.96;2041424;95;25871;-82
2022/03/16 11:30:27;;;;;;;;;;;;;;;;;;;;;
2022/03/16 11:34:11;;;;;;;33.23;18.25;;;;;;;29.04;18.96;101087.11;2064641;94;25813;-83
2022/03/16 11:38:30;;;;;;;;;;;;;;;;;;;;;
2022/03/16 11:42:04;;;;;;;21.65;18.10;;;;;;;28.97;19.11;101091.83;2065808;91;25819;-78
2022/03/16 11:46:02;;;;;;;24.67;19.10;;;;;;;28.75;19.07;101086.94;2043723;95;25704;-79
2022/03/16 11:49:42;;;;;;;21.87;18.15;;;;;;;28.43;19.43;101098.03;2045903;95;25842;-79
2022/03/16 11:53:17;;;;;;;23.27;18.98;;;;;;;28.09;19.91;101098.90;2043473;95;25839;-79
2022/03/16 11:56:54;;;;;;;22.20;18.67;;;;;;;27.71;20.18;101094.47;2046300;96;26415;-79
2022/03/16 12:00:51;;;;;;;;;;;;;;;;;;;;;
2022/03/16 12:04:38;;;;;;;21.60;18.80;;;;;;;27.19;20.91;101086.44;2043810;95;25911;-80
2022/03/16 12:08:17;;;;;;;;;;;;;;;26.93;20.85;101084.63;2049372;96;25754;-80
2022/03/16 12:16:20;;;;;;;22.05;18.30;;;;;;;26.98;20.83;101090.69;2077260;94;25733;-78
2022/03/16 12:20:15;;;;;;;26.25;19.65;;;;;;;27.03;20.93;101094.11;1968768;100;25780;-79
2022/03/16 12:25:08;;;;;;;19.12;17.12;;;;;;;27.00;20.92;101090.19;2024191;97;25752;-79
2022/03/16 12:32:35;;;;;;;26.23;18.67;;;;;;;27.58;21.58;101099.85;2026397;96;25787;-82
2022/03/16 12:36:32;;;;;;;21.05;18.17;;;;;;;27.74;21.59;101099.69;1905360;102;25910;-81
2022/03/16 12:40:19;;;;;;;20.75;17.12;;;;;;;27.76;20.77;101096.53;1941176;101;25776;-78
2022/03/16 12:43:58;;;;;;;20.23;17.25;;;;;;;27.22;20.54;101096.18;1945432;101;25865;-79
2022/03/16 12:47:42;;;;;;;25.02;18.00;;;;;;;26.62;20.60;101104.78;1941275;101;25932;-80
2022/03/16 12:51:45;;;;;;;21.17;18.12;;;;;;;25.96;21.03;101098.73;1956035;99;25811;-78
2022/03/16 12:59:16;;;;;;;25.48;17.32;;;;;;;24.73;21.83;101088.98;1887312;103;25756;-77
2022/03/16 13:02:42;;;;;;;23.87;17.35;;;;;;;24.13;22.32;101093.41;1888026;103;25919;-77
2022/03/16 13:06:22;;;;;;;23.77;17.87;;;;;;;23.71;22.77;101091.59;1887425;103;25880;-83
2022/03/16 13:10:04;;;;;;;;;;;;;;;;;;;;;
2022/03/16 13:13:38;;;;;;;24.92;18.52;;;;;;;23.16;23.49;101092.58;1917684;101;26272;-77
2022/03/16 13:17:07;;;;;;;24.63;18.07;;;;;;;22.91;23.78;101093.84;1917250;101;25767;-81
2022/03/16 13:20:37;;;;;;;22.50;17.35;;;;;;;22.73;23.99;101095.89;1916768;98;25840;-76
2022/03/16 13:24:03;;;;;;;19.67;17.42;;;;;;;22.70;24.84;101105.23;1916920;101;25888;-79
2022/03/16 13:27:39;;;;;;;28.77;17.12;;;;;;;22.76;26.63;101101.16;1913192;101;25938;-77
2022/03/16 13:31:17;;;;;;;;;;;;;;;;;;;;;
2022/03/16 13:34:50;;;;;;;23.62;16.87;;;;;;;22.80;27.19;101113.50;1940098;100;25783;-81
2022/03/16 13:38:20;;;;;;;21.30;17.10;;;;;;;22.67;26.34;101107.06;1945320;100;25968;-76
2022/03/16 13:42:24;;;;;;;21.42;18.50;;;;;;;22.63;26.67;101103.57;1891765;104;25924;-77
2022/03/16 13:46:11;;;;;;;19.82;16.57;;;;;;;22.65;26.54;101096.46;1897590;102;26473;-78
2022/03/16 13:49:42;;;;;;;18.70;16.80;;;;;;;22.50;26.74;101110.83;1917683;101;25771;-78
2022/03/16 13:53:35;;;;;;;20.02;15.65;;;;;;;22.37;26.70;101107.45;1826758;106;25868;-75
2022/03/16 14:02:25;;;;;;;21.30;17.65;;;;;;;22.27;26.83;101115.58;1856261;105;25378;-76
2022/03/16 14:06:27;;;;;;;34.75;18.25;;;;;;;22.02;26.46;101123.82;1914949;102;26523;-78
2022/03/16 14:10:09;;;;;;;23.87;17.48;;;;;;;21.75;26.50;101114.84;1893548;103;25871;-76
2022/03/16 14:14:04;;;;;;;;;;;;;;;;;;;;;
2022/03/16 14:18:00;;;;;;;25.85;16.70;;;;;;;21.19;26.25;101121.08;1903136;101;25954;-75
2022/03/16 14:21:34;;;;;;;22.50;17.20;;;;;;;21.00;25.60;101120.36;1905530;96;25903;-76
2022/03/16 14:25:32;;;;;;;18.60;15.78;;;;;;;20.62;25.56;101129.88;1951149;101;25934;-75
2022/03/16 14:28:57;;;;;;;19.48;16.00;;;;;;;20.05;25.11;101131.45;1958828;101;25806;-75
2022/03/16 14:32:25;;;;;;;47.70;18.07;;;;;;;19.70;25.51;101135.05;2042879;93;26078;-74
2022/03/16 14:40:02;;;;;;;30.92;16.23;;;;;;;19.77;26.08;101143.41;2263053;86;25764;-82
2022/03/16 14:43:31;;;;;;;23.12;15.80;;;;;;;19.87;26.24;101138.10;2263058;86;25677;-83
2022/03/16 14:46:59;;;;;;;23.57;15.60;;;;;;;19.93;26.40;101143.38;2238858;87;25721;-83
2022/03/16 14:50:31;;;;;;;23.18;15.90;;;;;;;19.92;26.58;101145.60;2263217;87;26122;-84
2022/03/16 14:54:00;;;;;;;21.75;16.25;;;;;;;19.83;26.70;101157.52;2241424;87;26309;-82
2022/03/16 14:57:25;;;;;;;22.52;16.62;;;;;;;19.80;26.90;101161.92;2220571;86;25756;-82
2022/03/16 15:00:50;;;;;;;19.70;16.15;;;;;;;19.80;27.13;101171.63;2248880;86;25702;-83
2022/03/16 15:04:11;;;;;;;23.83;18.15;;;;;;;19.75;27.67;101173.42;2225474;87;25677;-83
2022/03/16 15:07:36;;;;;;;24.95;17.92;;;;;;;19.77;28.09;101175.16;2224714;88;26357;-83
2022/03/16 15:11:04;;;;;;;24.77;17.90;;;;;;;19.62;28.27;101179.13;2174409;89;25774;-82
2022/03/16 15:14:42;;;;;;;;;;;;;;;;;;;;;
2022/03/16 15:18:10;;;;;;;23.50;18.02;;;;;;;19.31;29.16;101196.33;2138587;91;25807;-83
2022/03/16 15:21:31;;;;;;;27.25;18.35;;;;;;;19.20;29.53;101192.77;2139942;92;25738;-82
2022/03/16 15:25:01;;;;;;;26.20;19.60;;;;;;;19.06;29.83;101197.16;2140104;92;25870;-82
2022/03/16 15:28:34;;;;;;;36.63;21.70;;;;;;;18.90;30.15;101206.84;2170676;90;25823;-82
2022/03/16 15:32:03;;;;;;;32.08;23.10;;;;;;;18.70;30.15;101212.47;2115792;92;26072;-83
2022/03/16 15:35:39;;;;;;;31.70;22.75;;;;;;;18.44;30.25;101205.31;2137880;92;25744;-82
2022/03/16 15:39:19;;;;;;;41.53;21.70;;;;;;;18.18;30.55;101209.13;2100304;94;46118;-82
2022/03/16 15:42:59;;;;;;;27.35;21.93;;;;;;;18.02;30.73;101211.22;2102705;94;25799;-82
2022/03/16 15:46:36;;;;;;;36.35;23.15;;;;;;;17.73;31.08;101214.97;2101563;94;25778;-81
2022/03/16 15:50:08;;;;;;;34.05;22.93;;;;;;;17.41;31.39;101208.98;2100874;94;25907;-82
2022/03/16 15:54:07;;;;;;;33.18;23.75;;;;;;;17.13;31.76;101213.11;2102974;94;25848;-82
2022/03/16 15:57:39;;;;;;;35.30;24.80;;;;;;;16.97;31.90;101221.28;2063960;95;25764;-80
2022/03/16 16:01:09;;;;;;;39.38;23.32;;;;;;;16.80;31.98;101223.73;2062435;95;25778;-82
2022/03/16 16:05:16;;;;;;;33.53;23.55;;;;;;;16.93;33.65;101230.02;2062387;95;25917;-83
2022/03/16 16:08:45;;;;;;;37.08;25.08;;;;;;;17.13;33.45;101237.70;2055974;94;25815;-82
2022/03/16 16:12:13;;;;;;;36.83;24.63;;;;;;;17.21;33.12;101241.33;2091937;93;26495;-82
2022/03/16 16:15:38;;;;;;;35.92;24.55;;;;;;;17.23;32.85;101243.52;2070469;94;25669;-80
2022/03/16 16:22:55;;;;;;;40.65;24.43;;;;;;;17.19;32.62;101254.91;2146150;91;26120;-82
2022/03/16 16:26:29;;;;;;;36.35;24.00;;;;;;;17.15;32.53;101254.87;2153936;90;25754;-81
2022/03/16 16:30:26;;;;;;;38.45;25.82;;;;;;;17.08;32.47;101266.21;2147577;90;25806;-82
2022/03/16 16:34:24;;;;;;;37.88;26.45;;;;;;;17.07;32.47;101282.42;2140982;90;25838;-84
2022/03/16 16:37:51;;;;;;;47.03;25.85;;;;;;;16.97;32.50;101278.80;2126944;91;25459;-83
2022/03/16 16:41:37;;;;;;;39.03;24.98;;;;;;;16.91;32.50;101285.33;2127614;91;25390;-82
2022/03/16 16:45:20;;;;;;;38.00;24.80;;;;;;;16.83;32.54;101293.55;2132417;92;25756;-83
2022/03/16 16:48:50;;;;;;;51.53;26.65;;;;;;;16.77;32.51;101289.52;2149214;92;32071;-83
2022/03/16 16:52:22;;;;;;;45.73;25.88;;;;;;;16.70;32.55;101295.11;2148747;87;25655;-83
2022/03/16 16:56:02;;;;;;;46.10;26.83;;;;;;;16.64;32.58;101302.07;2146986;92;25923;-83
2022/03/16 16:59:26;;;;;;;;;;;;;;;16.58;32.63;101306.81;2150521;92;25882;-83
2022/03/16 17:03:00;;;;;;;41.68;25.50;;;;;;;16.50;32.70;101315.93;2148654;92;25811;-84
2022/03/16 17:06:34;;;;;;;44.45;23.92;;;;;;;16.39;32.77;101316.19;2181039;89;25657;-81
2022/03/16 17:13:38;;;;;;;32.23;22.80;;;;;;;16.23;32.79;101333.51;2221905;89;25795;-82
2022/03/16 17:17:03;;;;;;;40.83;24.67;;;;;;;16.11;32.89;101341.63;2237092;88;25698;-81
2022/03/16 17:20:36;;;;;;;36.80;23.10;;;;;;;16.03;32.94;101338.45;2217134;88;25726;-84
2022/03/16 17:23:59;;;;;;;39.38;23.42;;;;;;;15.98;33.22;101348.42;2235519;88;25654;-85
2022/03/16 17:27:30;;;;;;;38.65;23.50;;;;;;;15.99;33.25;101352.81;2231823;88;25709;-84
2022/03/16 17:30:58;;;;;;;39.30;23.47;;;;;;;15.97;33.22;101359.81;2219703;87;26099;-85
2022/03/16 17:34:21;;;;;;;37.78;23.38;;;;;;;15.90;33.21;101361.45;2227467;88;25223;-84
2022/03/16 17:38:03;;;;;;;38.55;22.85;;;;;;;15.81;33.17;101366.54;2217163;89;25686;-83
2022/03/16 17:49:01;;;;;;;31.10;22.80;;;;;;;15.65;33.31;101370.59;2202687;89;26559;-86
2022/03/16 17:52:27;;;;;;;34.70;22.22;;;;;;;15.59;33.25;101374.01;2187680;89;26233;-86
2022/03/16 17:59:41;;;;;;;36.93;23.45;;;;;;;15.37;33.20;101378.81;2177207;89;26047;-85
2022/03/16 18:03:19;;;;;;;41.83;24.23;;;;;;;15.32;33.17;101382.64;2203791;89;25712;-87
2022/03/16 18:06:56;;;;;;;35.88;23.50;;;;;;;15.32;33.13;101382.24;2222695;89;25888;-83
2022/03/16 18:14:17;;;;;;;33.25;22.02;;;;;;;14.99;33.10;101350.91;2222890;87;25798;-84
2022/03/16 18:17:50;;;;;;;36.80;23.05;;;;;;;15.12;33.04;101390.14;2140762;90;25318;-85
2022/03/16 18:21:15;;;;;;;33.88;23.32;;;;;;;15.06;33.04;101384.32;2222134;88;25826;-85
2022/03/16 18:24:40;;;;;;;34.48;24.77;;;;;;;14.93;33.02;101382.71;2224233;88;25339;-86
2022/03/16 18:28:00;;;;;;;38.05;24.35;;;;;;;15.01;33.02;101401.70;2224984;88;25470;-86
2022/03/16 18:31:27;;;;;;;39.40;24.35;;;;;;;15.00;32.99;101399.06;2225585;88;30948;-85
2022/03/16 18:34:50;;;;;;;39.92;23.60;;;;;;;14.78;32.84;101391.11;2225231;88;25719;-86
2022/03/16 18:38:18;;;;;;;42.13;24.60;;;;;;;14.78;32.84;101391.11;2182248;90;25788;-85
2022/03/16 18:41:55;;;;;;;35.85;23.18;;;;;;;14.88;32.91;101420.66;2225201;88;25764;-86
2022/03/16 18:45:38;;;;;;;31.90;22.15;;;;;;;14.86;32.88;101427.20;2222791;88;25934;-86
2022/03/16 18:48:59;;;;;;;33.42;21.93;;;;;;;15.10;32.91;101437.80;2201010;89;25686;-86
2022/03/16 18:52:28;;;;;;;32.93;21.87;;;;;;;15.10;32.91;101437.80;2147051;90;25808;-86
2022/03/16 18:55:57;;;;;;;31.05;22.13;;;;;;;15.21;32.76;101441.97;2126815;92;25799;-85
2022/03/16 19:03:06;;;;;;;28.05;19.55;;;;;;;15.36;32.79;101439.68;2125819;92;26074;-85
2022/03/16 19:06:42;;;;;;;28.62;20.25;;;;;;;15.46;32.72;101448.64;2126448;91;25781;-86
2022/03/16 19:10:17;;;;;;;29.02;19.35;;;;;;;15.46;32.72;101448.64;2112421;91;26645;-86
2022/03/16 19:13:48;;;;;;;35.20;19.85;;;;;;;15.49;32.65;101453.94;2103078;92;25966;-79
2022/03/16 19:17:36;;;;;;;;;;;;;;;;;;;;;
2022/03/16 19:20:57;;;;;;;28.25;19.23;;;;;;;15.54;32.67;101457.56;2095644;94;25798;-86
2022/03/16 19:24:42;;;;;;;;;;;;;;;;;;;;;
2022/03/16 19:28:19;;;;;;;34.60;19.65;;;;;;;15.58;32.65;101468.59;2090448;93;25924;-86
2022/03/16 19:31:48;;;;;;;29.48;18.80;;;;;;;15.58;32.49;101465.53;2100832;92;25847;-86
2022/03/16 19:35:25;;;;;;;28.67;19.85;;;;;;;15.58;32.49;101465.53;2098472;92;25869;-86
2022/03/16 19:39:02;;;;;;;31.33;18.87;;;;;;;15.58;32.86;101470.78;2101800;94;25793;-85
2022/03/16 19:42:31;;;;;;;23.27;17.45;;;;;;;15.59;32.75;101479.55;2100823;92;25688;-85
2022/03/16 19:45:55;;;;;;;25.15;18.00;;;;;;;15.35;32.73;101433.94;2070005;92;26016;-85
2022/03/16 19:49:32;;;;;;;24.50;17.52;;;;;;;15.56;32.70;101473.83;2063819;94;26569;-86
2022/03/16 19:53:18;;;;;;;24.25;17.02;;;;;;;15.37;32.80;101449.33;2110259;91;25707;-86
2022/03/16 19:56:46;;;;;;;25.20;17.62;;;;;;;15.58;32.41;101486.98;2039736;95;25819;-85
2022/03/16 20:00:21;;;;;;;25.12;16.70;;;;;;;15.57;32.83;101484.80;2091292;92;25834;-86
2022/03/16 20:07:31;;;;;;;25.25;16.75;;;;;;;15.55;32.91;101487.80;2063732;94;25871;-84
2022/03/16 20:11:13;;;;;;;24.67;17.27;;;;;;;15.53;32.92;101488.66;2072318;93;25768;-85
2022/03/16 20:15:11;;;;;;;28.30;17.50;;;;;;;15.50;32.97;101496.47;2072213;94;26075;-85
2022/03/16 20:19:12;;;;;;;;;;;;;;;;;;;;;
2022/03/16 20:22:49;;;;;;;30.72;17.27;;;;;;;15.47;33.02;101509.54;2081209;91;25735;-85
2022/03/16 20:26:16;;;;;;;27.48;17.32;;;;;;;15.45;32.95;101519.12;2090314;92;25933;-84
2022/03/16 20:29:53;;;;;;;22.37;15.75;;;;;;;15.27;33.13;101485.02;2093034;92;25959;-84
2022/03/16 20:33:29;;;;;;;23.42;15.98;;;;;;;15.27;33.13;101485.02;2093226;92;25805;-84
2022/03/16 20:37:13;;;;;;;26.87;16.87;;;;;;;15.38;33.17;101516.78;2083815;94;25890;-83
2022/03/16 20:40:50;;;;;;;21.68;16.15;;;;;;;15.35;33.19;101520.66;2101192;92;25899;-85
2022/03/16 20:44:43;;;;;;;22.85;15.80;;;;;;;15.33;33.23;101516.70;2067832;95;25958;-84
2022/03/16 20:48:24;;;;;;;22.17;16.05;;;;;;;15.31;33.29;101529.33;2066871;94;25816;-85
2022/03/16 20:52:07;;;;;;;21.50;16.40;;;;;;;15.28;33.30;101526.62;2066559;95;25851;-85
2022/03/16 20:55:50;;;;;;;20.70;15.23;;;;;;;15.26;33.34;101536.23;1993794;97;26178;-85
2022/03/16 21:03:28;;;;;;;21.60;16.30;;;;;;;15.01;33.40;101515.06;1932880;100;25776;-86
2022/03/16 21:07:13;;;;;;;25.43;16.52;;;;;;;15.17;33.44;101546.52;1918644;101;25936;-85
2022/03/16 21:11:02;;;;;;;22.65;16.67;;;;;;;15.11;33.44;101553.39;1930237;99;25955;-85
2022/03/16 21:14:33;;;;;;;23.83;18.07;;;;;;;15.07;33.38;101545.41;1884512;103;25855;-85
2022/03/16 21:17:48;;;;;;;25.92;17.77;;;;;;;14.85;33.52;101522.59;1885796;102;25913;-84
2022/03/16 21:21:18;;;;;;;23.25;16.10;;;;;;;14.93;33.56;101535.02;1886055;103;25883;-85
2022/03/16 21:24:56;;;;;;;24.75;16.93;;;;;;;14.80;33.41;101536.02;1885744;104;25817;-84
2022/03/16 21:28:31;;;;;;;25.95;18.57;;;;;;;14.80;33.41;101536.02;1888235;100;25814;-84
2022/03/16 21:32:09;;;;;;;28.80;17.60;;;;;;;14.92;33.58;101563.41;1905103;98;25771;-84
2022/03/16 21:39:22;;;;;;;27.65;17.98;;;;;;;14.85;33.61;101567.23;1910916;102;25704;-84
2022/03/16 21:42:49;;;;;;;29.52;20.12;;;;;;;14.76;33.59;101565.67;1911171;100;26187;-84
2022/03/16 21:46:20;;;;;;;;;;;;;;;14.67;33.83;101547.48;1920397;101;26181;-84
2022/03/16 21:50:12;;;;;;;26.25;19.20;;;;;;;14.76;33.58;101581.42;1924555;101;25809;-85
2022/03/16 21:53:44;;;;;;;26.23;18.60;;;;;;;14.63;33.57;101571.02;1942657;97;25829;-84
2022/03/16 21:57:32;;;;;;;27.35;18.57;;;;;;;14.69;33.52;101589.11;1950285;99;25938;-82
2022/03/16 22:01:13;;;;;;;23.87;17.98;;;;;;;14.65;33.53;101594.70;1951130;99;25890;-83
2022/03/16 22:05:08;;;;;;;32.85;20.50;;;;;;;14.80;37.00;101594.20;1950664;100;25807;-85
2022/03/16 22:08:48;;;;;;;24.07;19.50;;;;;;;14.84;37.13;101602.18;1806553;107;25911;-84
2022/03/16 22:12:13;;;;;;;28.87;19.40;;;;;;;14.84;37.13;101602.18;1783142;109;26219;-87
2022/03/16 22:19:26;;;;;;;30.40;19.40;;;;;;;14.78;36.40;101607.30;1780471;109;25831;-86
2022/03/16 22:23:12;;;;;;;28.47;19.42;;;;;;;14.71;36.41;101617.15;1780522;109;25932;-88
2022/03/16 22:26:38;;;;;;;28.17;19.85;;;;;;;14.71;36.41;101617.15;1780343;109;26023;-84
2022/03/16 22:30:08;;;;;;;30.17;21.05;;;;;;;14.68;36.15;101617.49;1810156;107;25826;-86
2022/03/16 22:37:36;;;;;;;32.80;20.70;;;;;;;14.59;35.79;101631.28;1822079;106;25811;-85
2022/03/16 22:41:17;;;;;;;32.88;22.25;;;;;;;14.51;35.45;101637.64;1804575;106;26099;-84
2022/03/16 22:44:44;;;;;;;35.48;21.75;;;;;;;14.51;35.45;101637.64;1804399;108;25805;-85